createdAt,value
2023-05-09T00:01:54.476Z,0.30
2023-05-09T00:04:21.975Z,0.30
2023-05-09T00:06:49.423Z,0.30
2023-05-09T00:09:18.969Z,0.30
2023-05-09T00:11:46.423Z,0.40
2023-05-09T00:14:14.086Z,0.30
2023-05-09T00:16:41.531Z,0.30
2023-05-09T00:19:10.075Z,0.30
2023-05-09T00:21:37.678Z,0.35
2023-05-09T00:24:05.487Z,0.30
2023-05-09T00:26:34.500Z,0.30
2023-05-09T00:29:01.989Z,0.30
2023-05-09T00:31:29.546Z,0.30
2023-05-09T00:33:57.017Z,0.35
2023-05-09T00:36:24.467Z,0.38
2023-05-09T00:38:52.040Z,0.40
2023-05-09T00:41:19.484Z,0.40
2023-05-09T00:43:48.545Z,0.40
2023-05-09T00:46:16.061Z,0.45
2023-05-09T00:48:43.634Z,0.30
2023-05-09T00:51:11.097Z,0.38
2023-05-09T00:53:38.566Z,0.50
2023-05-09T00:56:06.483Z,0.30
2023-05-09T00:58:33.940Z,0.30
2023-05-09T01:01:03.810Z,0.30
2023-05-09T01:03:32.024Z,0.40
2023-05-09T01:06:06.300Z,0.40
2023-05-09T01:08:38.412Z,0.30
2023-05-09T01:11:10.663Z,0.30
2023-05-09T01:13:42.206Z,0.32
2023-05-09T01:16:15.431Z,0.40
2023-05-09T01:18:45.153Z,0.30
2023-05-09T01:21:14.521Z,0.32
2023-05-09T01:23:50.896Z,0.30
2023-05-09T01:26:22.118Z,0.32
2023-05-09T01:29:01.541Z,0.40
2023-05-09T01:31:31.168Z,0.40
2023-05-09T01:34:00.823Z,0.40
2023-05-09T01:36:30.873Z,0.40
2023-05-09T01:38:59.534Z,0.40
2023-05-09T01:41:29.843Z,0.35
2023-05-09T01:43:58.358Z,0.30
2023-05-09T01:46:26.647Z,0.38
2023-05-09T01:48:55.907Z,0.40
2023-05-09T01:51:23.704Z,0.40
2023-05-09T01:53:52.580Z,0.40
2023-05-09T01:56:21.491Z,0.32
2023-05-09T01:58:50.105Z,0.40
2023-05-09T02:01:18.122Z,0.30
2023-05-09T02:03:46.117Z,0.30
2023-05-09T02:06:15.853Z,0.40
2023-05-09T02:08:44.178Z,0.45
2023-05-09T02:11:11.802Z,0.30
2023-05-09T02:13:39.340Z,0.40
2023-05-09T02:16:07.786Z,0.40
2023-05-09T02:18:37.229Z,0.40
2023-05-09T02:21:04.856Z,0.43
2023-05-09T02:23:33.799Z,0.40
2023-05-09T02:26:01.600Z,0.40
2023-05-09T02:28:29.487Z,0.40
2023-05-09T02:30:58.524Z,0.30
2023-05-09T02:33:26.331Z,0.30
2023-05-09T02:35:53.795Z,0.40
2023-05-09T02:38:21.570Z,0.30
2023-05-09T02:40:52.436Z,0.30
2023-05-09T02:43:20.208Z,0.40
2023-05-09T02:45:47.685Z,0.45
2023-05-09T02:48:15.250Z,0.30
2023-05-09T02:50:43.383Z,0.40
2023-05-09T02:53:10.947Z,0.40
2023-05-09T02:55:40.391Z,0.40
2023-05-09T02:58:13.426Z,0.30
2023-05-09T03:00:42.925Z,0.40
2023-05-09T03:03:11.246Z,0.40
2023-05-09T03:05:38.931Z,0.50
2023-05-09T03:08:06.787Z,0.30
2023-05-09T03:10:35.250Z,0.40
2023-05-09T03:13:03.377Z,0.40
2023-05-09T03:15:32.809Z,0.40
2023-05-09T03:18:01.013Z,0.40
2023-05-09T03:20:28.588Z,0.30
2023-05-09T03:22:56.111Z,0.40
2023-05-09T03:25:24.510Z,0.30
2023-05-09T03:27:52.083Z,0.30
2023-05-09T03:30:19.570Z,0.38
2023-05-09T03:32:50.722Z,0.40
2023-05-09T03:35:18.305Z,0.40
2023-05-09T03:37:45.849Z,0.32
2023-05-09T03:40:13.429Z,0.40
2023-05-09T03:42:48.180Z,0.40
2023-05-09T03:45:15.993Z,0.40
2023-05-09T03:47:46.061Z,0.40
2023-05-09T03:50:15.188Z,0.30
2023-05-09T03:52:43.949Z,0.40
2023-05-09T03:55:12.325Z,0.30
2023-05-09T03:57:39.963Z,0.40
2023-05-09T04:00:10.203Z,0.40
2023-05-09T04:02:46.380Z,0.40
2023-05-09T04:05:24.345Z,0.30
2023-05-09T04:07:52.739Z,0.30
2023-05-09T04:10:20.717Z,0.38
2023-05-09T04:12:48.867Z,0.40
2023-05-09T04:15:18.422Z,0.30
2023-05-09T04:17:46.104Z,0.30
2023-05-09T04:20:13.867Z,0.30
2023-05-09T04:22:46.804Z,0.40
2023-05-09T04:25:16.945Z,0.30
2023-05-09T04:27:45.666Z,0.32
2023-05-09T04:30:13.493Z,0.32
2023-05-09T04:32:45.637Z,0.30
2023-05-09T04:35:13.833Z,0.40
2023-05-09T04:37:46.416Z,0.40
2023-05-09T04:40:14.519Z,0.40
2023-05-09T04:42:48.980Z,0.30
2023-05-09T04:45:17.278Z,0.30
2023-05-09T04:47:44.969Z,0.25
2023-05-09T04:50:12.910Z,0.20
2023-05-09T04:52:40.322Z,0.20
2023-05-09T04:55:09.828Z,0.30
2023-05-09T04:57:41.983Z,0.20
2023-05-09T05:00:11.856Z,0.30
2023-05-09T05:02:40.255Z,0.20
2023-05-09T05:05:12.107Z,0.30
2023-05-09T05:07:42.715Z,0.20
2023-05-09T05:10:14.444Z,0.20
2023-05-09T05:12:46.417Z,0.20
2023-05-09T05:15:15.562Z,0.10
2023-05-09T05:17:45.722Z,0.10
2023-05-09T05:20:14.046Z,0.10
2023-05-09T05:22:45.698Z,0.10
2023-05-09T05:25:15.269Z,0.10
2023-05-09T05:27:45.984Z,0.10
2023-05-09T05:30:18.507Z,0.20
2023-05-09T05:32:47.023Z,0.10
2023-05-09T05:35:17.706Z,0.20
2023-05-09T05:37:46.477Z,0.20
2023-05-09T05:40:16.926Z,0.20
2023-05-09T05:42:47.203Z,0.30
2023-05-09T05:45:15.174Z,0.20
2023-05-09T05:47:46.970Z,0.30
2023-05-09T05:50:14.794Z,0.30
2023-05-09T05:52:43.109Z,0.30
2023-05-09T05:55:14.091Z,0.20
2023-05-09T05:57:43.486Z,0.20
2023-05-09T06:00:14.925Z,0.10
2023-05-09T06:02:47.723Z,0.10
2023-05-09T06:05:22.626Z,0.10
2023-05-09T06:07:51.234Z,0.00
2023-05-09T06:10:18.699Z,0.10
2023-05-09T06:12:47.926Z,0.00
2023-05-09T06:15:15.660Z,0.10
2023-05-09T06:17:47.010Z,0.00
2023-05-09T06:20:14.496Z,0.00
2023-05-09T06:22:41.927Z,0.00
2023-05-09T06:25:10.589Z,0.00
2023-05-09T06:27:38.666Z,0.00
2023-05-09T06:30:23.824Z,0.00
2023-05-09T06:32:53.561Z,0.00
2023-05-09T06:35:21.080Z,0.03
2023-05-09T06:37:49.137Z,0.00
2023-05-09T06:40:17.082Z,0.00
2023-05-09T06:42:44.619Z,0.00
2023-05-09T06:45:14.032Z,0.00
2023-05-09T06:47:41.588Z,0.00
2023-05-09T06:50:09.563Z,0.00
2023-05-09T06:52:37.056Z,0.00
2023-05-09T06:55:04.631Z,0.00
2023-05-09T06:57:32.152Z,0.00
2023-05-09T06:59:59.576Z,0.00
2023-05-09T07:02:28.437Z,0.00
2023-05-09T07:04:56.051Z,0.00
2023-05-09T07:07:23.517Z,0.00
2023-05-09T07:09:55.259Z,0.00
2023-05-09T07:12:28.329Z,0.00
2023-05-09T07:14:55.752Z,0.00
2023-05-09T07:17:24.410Z,0.00
2023-05-09T07:19:53.339Z,0.00
2023-05-09T07:22:20.754Z,0.00
2023-05-09T07:24:48.207Z,0.00
2023-05-09T07:27:15.701Z,0.00
2023-05-09T07:29:43.261Z,0.00
2023-05-09T07:32:11.013Z,0.00
2023-05-09T07:34:38.528Z,0.00
2023-05-09T07:37:07.309Z,0.00
2023-05-09T07:39:34.694Z,0.00
2023-05-09T07:42:02.111Z,0.00
2023-05-09T07:44:29.596Z,0.00
2023-05-09T07:46:59.102Z,0.00
2023-05-09T07:49:26.558Z,0.00
2023-05-09T07:51:53.947Z,0.00
2023-05-09T07:54:22.777Z,0.00
2023-05-09T07:56:50.223Z,0.00
2023-05-09T07:59:18.230Z,0.00
2023-05-09T08:01:46.048Z,0.00
2023-05-09T08:04:13.667Z,0.00
2023-05-09T08:06:41.190Z,0.00
2023-05-09T08:09:08.598Z,0.00
2023-05-09T08:11:37.374Z,0.00
2023-05-09T08:14:04.969Z,0.00
2023-05-09T08:16:32.593Z,0.00
2023-05-09T08:19:00.034Z,0.00
2023-05-09T08:21:28.015Z,0.00
2023-05-09T08:23:55.700Z,0.00
2023-05-09T08:26:23.624Z,0.00
2023-05-09T08:28:54.058Z,0.00
2023-05-09T08:31:21.468Z,0.00
2023-05-09T08:33:49.063Z,0.00
2023-05-09T08:36:16.708Z,0.00
2023-05-09T08:38:44.178Z,0.00
2023-05-09T08:41:11.611Z,0.03
2023-05-09T08:43:39.294Z,0.00
2023-05-09T08:46:08.746Z,0.00
2023-05-09T08:48:37.942Z,0.00
2023-05-09T08:51:05.973Z,0.08
2023-05-09T08:53:33.494Z,0.00
2023-05-09T08:56:01.574Z,0.00
2023-05-09T08:58:29.244Z,0.00
2023-05-09T09:00:57.225Z,0.00
2023-05-09T09:03:26.234Z,0.00
2023-05-09T09:05:54.708Z,0.00
2023-05-09T09:08:22.570Z,0.00
2023-05-09T09:10:50.312Z,0.00
2023-05-09T09:13:18.232Z,0.00
2023-05-09T09:15:46.929Z,0.00
2023-05-09T09:18:17.566Z,0.00
2023-05-09T09:20:50.790Z,0.00
2023-05-09T09:23:19.922Z,0.10
2023-05-09T09:25:47.925Z,0.00
2023-05-09T09:28:15.477Z,0.10
2023-05-09T09:30:45.999Z,0.10
2023-05-09T09:33:19.833Z,0.10
2023-05-09T09:35:48.737Z,0.10
2023-05-09T09:38:16.230Z,0.10
2023-05-09T09:40:49.616Z,0.10
2023-05-09T09:43:17.093Z,0.10
2023-05-09T09:45:44.538Z,0.10
2023-05-09T09:48:12.071Z,0.10
2023-05-09T09:50:39.579Z,0.10
2023-05-09T09:53:08.674Z,0.10
2023-05-09T09:55:36.258Z,0.10
2023-05-09T09:58:04.280Z,0.10
2023-05-09T10:00:32.701Z,0.10
2023-05-09T10:03:00.750Z,0.20
2023-05-09T10:05:29.869Z,0.10
2023-05-09T10:07:58.431Z,0.10
2023-05-09T10:10:31.397Z,0.10
2023-05-09T10:12:59.898Z,0.10
2023-05-09T10:15:35.646Z,0.10
2023-05-09T10:18:11.220Z,0.10
2023-05-09T10:20:39.333Z,0.10
2023-05-09T10:23:07.149Z,0.10
2023-05-09T10:25:39.350Z,0.10
2023-05-09T10:28:09.531Z,0.10
2023-05-09T10:30:41.022Z,0.10
2023-05-09T10:33:10.430Z,0.10
2023-05-09T10:35:38.907Z,0.10
2023-05-09T10:38:07.637Z,0.10
2023-05-09T10:40:35.246Z,0.10
2023-05-09T10:43:05.230Z,0.10
2023-05-09T10:45:32.696Z,0.10
2023-05-09T10:48:01.565Z,0.10
2023-05-09T10:50:29.416Z,0.10
2023-05-09T10:53:07.077Z,0.10
2023-05-09T10:55:37.919Z,0.10
2023-05-09T10:58:19.423Z,0.10
2023-05-09T11:00:47.387Z,0.10
2023-05-09T11:03:14.897Z,0.10
2023-05-09T11:05:42.676Z,0.10
2023-05-09T11:08:19.689Z,0.10
2023-05-09T11:10:47.488Z,0.10
2023-05-09T11:13:18.942Z,0.10
2023-05-09T11:16:06.308Z,0.10
2023-05-09T11:18:33.970Z,0.10
2023-05-09T11:21:08.950Z,0.10
2023-05-09T11:23:36.778Z,0.10
2023-05-09T11:26:07.857Z,0.10
2023-05-09T11:28:36.370Z,0.10
2023-05-09T11:31:11.147Z,0.10
2023-05-09T11:33:38.800Z,0.10
2023-05-09T11:36:16.467Z,0.10
2023-05-09T11:38:43.869Z,0.20
2023-05-09T11:41:11.515Z,0.10
2023-05-09T11:43:39.792Z,0.10
2023-05-09T11:46:07.310Z,0.10
2023-05-09T11:48:40.008Z,0.20
2023-05-09T11:51:07.821Z,0.10
2023-05-09T11:53:36.157Z,0.10
2023-05-09T11:56:04.673Z,0.10
2023-05-09T11:58:32.315Z,0.20
2023-05-09T12:00:59.991Z,0.10
2023-05-09T12:03:28.176Z,0.10
2023-05-09T12:05:57.165Z,0.10
2023-05-09T12:08:25.374Z,0.20
2023-05-09T12:10:52.790Z,0.10
2023-05-09T12:13:20.396Z,0.10
2023-05-09T12:15:48.173Z,0.10
2023-05-09T12:18:17.020Z,0.10
2023-05-09T12:20:44.836Z,0.10
2023-05-09T12:23:14.350Z,0.10
2023-05-09T12:25:47.593Z,0.10
2023-05-09T12:28:15.805Z,0.10
2023-05-09T12:30:43.816Z,0.10
2023-05-09T12:33:12.323Z,0.10
2023-05-09T12:35:40.341Z,0.10
2023-05-09T12:38:07.807Z,0.10
2023-05-09T12:40:36.960Z,0.10
2023-05-09T12:43:04.381Z,0.15
2023-05-09T12:45:33.129Z,0.10
2023-05-09T12:48:02.336Z,0.20
2023-05-09T12:50:34.657Z,0.10
2023-05-09T12:53:03.751Z,0.10
2023-05-09T12:55:32.710Z,0.10
2023-05-09T12:58:03.355Z,0.10
2023-05-09T13:00:42.279Z,0.10
2023-05-09T13:03:20.599Z,0.10
2023-05-09T13:05:54.817Z,0.10
2023-05-09T13:08:22.325Z,0.10
2023-05-09T13:10:51.057Z,0.10
2023-05-09T13:13:22.917Z,0.10
2023-05-09T13:15:50.566Z,0.10
2023-05-09T13:18:18.129Z,0.10
2023-05-09T13:20:45.639Z,0.10
2023-05-09T13:23:13.061Z,0.10
2023-05-09T13:25:40.766Z,0.10
2023-05-09T13:28:08.684Z,0.10
2023-05-09T13:30:37.607Z,0.10
2023-05-09T13:33:16.594Z,0.10
2023-05-09T13:35:51.741Z,0.20
2023-05-09T13:38:19.213Z,0.13
2023-05-09T13:40:46.637Z,0.10
2023-05-09T13:43:14.052Z,0.10
2023-05-09T13:45:42.855Z,0.10
2023-05-09T13:48:11.598Z,0.10
2023-05-09T13:50:39.178Z,0.10
2023-05-09T13:53:06.584Z,0.10
2023-05-09T13:55:34.598Z,0.10
2023-05-09T13:58:02.018Z,0.20
2023-05-09T14:00:29.536Z,0.10
2023-05-09T14:02:58.318Z,0.10
2023-05-09T14:05:25.796Z,0.10
2023-05-09T14:07:53.669Z,0.10
2023-05-09T14:10:21.774Z,0.10
2023-05-09T14:12:49.334Z,0.10
2023-05-09T14:15:17.027Z,0.10
2023-05-09T14:17:44.460Z,0.15
2023-05-09T14:20:15.673Z,0.10
2023-05-09T14:22:43.294Z,0.10
2023-05-09T14:25:11.094Z,0.10
2023-05-09T14:27:38.592Z,0.13
2023-05-09T14:30:06.461Z,0.15
2023-05-09T14:32:33.921Z,0.10
2023-05-09T14:35:01.403Z,0.20
2023-05-09T14:37:30.274Z,0.10
2023-05-09T14:39:57.699Z,0.10
2023-05-09T14:42:25.128Z,0.10
2023-05-09T14:44:52.524Z,0.10
2023-05-09T14:47:20.105Z,0.10
2023-05-09T14:49:47.904Z,0.10
2023-05-09T14:52:15.310Z,0.20
2023-05-09T14:54:44.150Z,0.15
2023-05-09T14:57:11.597Z,0.10
2023-05-09T14:59:39.063Z,0.10
2023-05-09T15:02:06.975Z,0.10
2023-05-09T15:04:34.455Z,0.10
2023-05-09T15:07:01.988Z,0.10
2023-05-09T15:09:29.488Z,0.20
2023-05-09T15:11:58.244Z,0.20
2023-05-09T15:14:25.698Z,0.20
2023-05-09T15:16:54.853Z,0.10
2023-05-09T15:19:23.085Z,0.10
2023-05-09T15:21:50.607Z,0.15
2023-05-09T15:24:18.054Z,0.10
2023-05-09T15:26:45.518Z,0.10
2023-05-09T15:29:14.269Z,0.10
2023-05-09T15:31:41.775Z,0.10
2023-05-09T15:34:09.218Z,0.13
2023-05-09T15:36:36.638Z,0.10
2023-05-09T15:39:05.005Z,0.10
2023-05-09T15:41:32.566Z,0.20
2023-05-09T15:44:00.001Z,0.10
2023-05-09T15:46:29.719Z,0.10
2023-05-09T15:48:57.920Z,0.10
2023-05-09T15:51:25.699Z,0.10
2023-05-09T15:53:53.151Z,0.10
2023-05-09T15:56:21.484Z,0.10
2023-05-09T15:58:48.974Z,0.10
2023-05-09T16:01:16.422Z,0.10
2023-05-09T16:03:45.683Z,0.10
2023-05-09T16:06:13.383Z,0.10
2023-05-09T16:08:40.902Z,0.10
2023-05-09T16:11:17.725Z,0.10
2023-05-09T16:13:46.490Z,0.10
2023-05-09T16:16:14.117Z,0.15
2023-05-09T16:18:41.617Z,0.13
2023-05-09T16:21:10.366Z,0.20
2023-05-09T16:23:39.381Z,0.10
2023-05-09T16:26:06.904Z,0.10
2023-05-09T16:28:34.360Z,0.10
2023-05-09T16:31:04.671Z,0.10
2023-05-09T16:33:33.082Z,0.10
2023-05-09T16:36:00.659Z,0.13
2023-05-09T16:38:30.179Z,0.20
2023-05-09T16:40:57.633Z,0.10
2023-05-09T16:43:25.081Z,0.10
2023-05-09T16:45:52.966Z,0.10
2023-05-09T16:48:20.564Z,0.10
2023-05-09T16:50:48.212Z,0.10
2023-05-09T16:53:15.780Z,0.10
2023-05-09T16:55:44.563Z,0.20
2023-05-09T16:58:12.097Z,0.10
2023-05-09T17:00:39.527Z,0.15
2023-05-09T17:03:07.893Z,0.20
2023-05-09T17:05:35.387Z,0.10
2023-05-09T17:08:03.180Z,0.10
2023-05-09T17:10:30.688Z,0.20
2023-05-09T17:12:59.497Z,0.20
2023-05-09T17:15:28.281Z,0.20
2023-05-09T17:17:55.838Z,0.10
2023-05-09T17:20:23.300Z,0.20
2023-05-09T17:22:50.739Z,0.20
2023-05-09T17:25:18.232Z,0.10
2023-05-09T17:27:45.695Z,0.20
2023-05-09T17:30:14.930Z,0.20
2023-05-09T17:32:42.773Z,0.20
2023-05-09T17:35:10.654Z,0.20
2023-05-09T17:37:38.108Z,0.20
2023-05-09T17:40:06.104Z,0.20
2023-05-09T17:42:33.510Z,0.20
2023-05-09T17:45:00.938Z,0.10
2023-05-09T17:47:29.784Z,0.10
2023-05-09T17:49:57.296Z,0.20
2023-05-09T17:52:24.782Z,0.22
2023-05-09T17:54:52.200Z,0.10
2023-05-09T17:57:19.644Z,0.20
2023-05-09T17:59:47.919Z,0.20
2023-05-09T18:02:16.598Z,0.20
2023-05-09T18:04:46.336Z,0.20
2023-05-09T18:07:14.169Z,0.20
2023-05-09T18:09:41.886Z,0.20
2023-05-09T18:12:09.874Z,0.10
2023-05-09T18:14:39.628Z,0.15
2023-05-09T18:17:07.195Z,0.20
2023-05-09T18:19:35.378Z,0.20
2023-05-09T18:22:04.323Z,0.20
2023-05-09T18:24:31.971Z,0.20
2023-05-09T18:26:59.393Z,0.20
2023-05-09T18:29:26.837Z,0.20
2023-05-09T18:31:55.798Z,0.20
2023-05-09T18:34:23.432Z,0.20
2023-05-09T18:36:52.558Z,0.20
2023-05-09T18:39:21.335Z,0.20
2023-05-09T18:41:48.752Z,0.20
2023-05-09T18:44:16.280Z,0.20
2023-05-09T18:46:43.736Z,0.20
2023-05-09T18:49:11.252Z,0.20
2023-05-09T18:51:38.815Z,0.20
2023-05-09T18:54:07.064Z,0.25
2023-05-09T18:56:39.099Z,0.20
2023-05-09T18:59:06.614Z,0.20
2023-05-09T19:01:34.134Z,0.20
2023-05-09T19:04:01.847Z,0.20
2023-05-09T19:06:29.516Z,0.30
2023-05-09T19:08:57.077Z,0.20
2023-05-09T19:11:24.866Z,0.20
2023-05-09T19:13:54.077Z,0.20
2023-05-09T19:16:22.413Z,0.20
2023-05-09T19:18:49.985Z,0.30
2023-05-09T19:21:18.715Z,0.22
2023-05-09T19:23:47.686Z,0.30
2023-05-09T19:26:15.783Z,0.25
2023-05-09T19:28:43.335Z,0.20
2023-05-09T19:31:12.214Z,0.20
2023-05-09T19:33:39.661Z,0.20
2023-05-09T19:36:07.332Z,0.20
2023-05-09T19:38:35.039Z,0.20
2023-05-09T19:41:02.837Z,0.30
2023-05-09T19:43:30.253Z,0.20
2023-05-09T19:45:57.732Z,0.22
2023-05-09T19:48:26.564Z,0.30
2023-05-09T19:50:56.913Z,0.20
2023-05-09T19:53:24.390Z,0.20
2023-05-09T19:55:51.839Z,0.30
2023-05-09T19:58:19.336Z,0.20
2023-05-09T20:00:46.799Z,0.20
2023-05-09T20:03:14.327Z,0.30
2023-05-09T20:05:43.254Z,0.30
2023-05-09T20:08:10.839Z,0.28
2023-05-09T20:10:38.274Z,0.20
2023-05-09T20:13:06.577Z,0.30
2023-05-09T20:15:34.082Z,0.20
2023-05-09T20:18:03.541Z,0.20
2023-05-09T20:20:32.073Z,0.20
2023-05-09T20:23:00.898Z,0.30
2023-05-09T20:25:28.686Z,0.20
2023-05-09T20:27:56.117Z,0.25
2023-05-09T20:30:23.536Z,0.30
2023-05-09T20:32:51.084Z,0.30
2023-05-09T20:35:18.664Z,0.20
2023-05-09T20:37:46.316Z,0.30
2023-05-09T20:40:15.722Z,0.30
2023-05-09T20:42:43.356Z,0.20
2023-05-09T20:45:11.206Z,0.20
2023-05-09T20:47:39.597Z,0.30
2023-05-09T20:50:07.906Z,0.30
2023-05-09T20:52:35.679Z,0.30
2023-05-09T20:55:03.181Z,0.20
2023-05-09T20:57:31.937Z,0.20
2023-05-09T20:59:59.339Z,0.20
2023-05-09T21:02:26.944Z,0.20
2023-05-09T21:04:54.448Z,0.20
2023-05-09T21:07:21.863Z,0.20
2023-05-09T21:09:50.714Z,0.20
2023-05-09T21:12:18.190Z,0.20
2023-05-09T21:14:47.002Z,0.20
2023-05-09T21:17:14.517Z,0.20
2023-05-09T21:19:42.005Z,0.20
2023-05-09T21:22:09.685Z,0.30
2023-05-09T21:24:37.337Z,0.30
2023-05-09T21:27:04.950Z,0.20
2023-05-09T21:29:32.364Z,0.20
2023-05-09T21:32:01.125Z,0.30
2023-05-09T21:34:28.546Z,0.20
2023-05-09T21:36:55.938Z,0.20
2023-05-09T21:39:23.397Z,0.20
2023-05-09T21:41:50.805Z,0.20
2023-05-09T21:44:18.230Z,0.20
2023-05-09T21:46:46.291Z,0.20
2023-05-09T21:49:16.984Z,0.20
2023-05-09T21:51:44.439Z,0.20
2023-05-09T21:54:11.894Z,0.20
2023-05-09T21:56:39.672Z,0.20
2023-05-09T21:59:07.320Z,0.20
2023-05-09T22:01:34.797Z,0.20
2023-05-09T22:04:03.500Z,0.30
2023-05-09T22:06:33.474Z,0.30
2023-05-09T22:09:01.009Z,0.20
2023-05-09T22:11:28.460Z,0.20
2023-05-09T22:13:56.345Z,0.20
2023-05-09T22:16:23.919Z,0.30
2023-05-09T22:18:51.419Z,0.30
2023-05-09T22:21:19.017Z,0.25
2023-05-09T22:23:47.747Z,0.30
2023-05-09T22:26:15.344Z,0.20
2023-05-09T22:28:42.744Z,0.30
2023-05-09T22:31:10.507Z,0.22
2023-05-09T22:33:37.928Z,0.20
2023-05-09T22:36:05.773Z,0.20
2023-05-09T22:38:33.238Z,0.25
2023-05-09T22:41:02.072Z,0.30
2023-05-09T22:43:38.857Z,0.20
2023-05-09T22:46:07.302Z,0.30
2023-05-09T22:48:34.912Z,0.28
2023-05-09T22:51:02.606Z,0.20
2023-05-09T22:53:30.048Z,0.30
2023-05-09T22:55:57.954Z,0.30
2023-05-09T22:58:27.339Z,0.20
2023-05-09T23:00:54.801Z,0.28
2023-05-09T23:03:22.361Z,0.30
2023-05-09T23:05:50.100Z,0.30
2023-05-09T23:08:17.552Z,0.22
2023-05-09T23:10:45.029Z,0.30
2023-05-09T23:13:12.486Z,0.30
2023-05-09T23:15:41.824Z,0.25
2023-05-09T23:18:09.488Z,0.30
2023-05-09T23:20:37.069Z,0.20
2023-05-09T23:23:04.656Z,0.20
2023-05-09T23:25:32.064Z,0.30
2023-05-09T23:27:59.487Z,0.20
2023-05-09T23:30:26.916Z,0.20
2023-05-09T23:32:56.121Z,0.30
2023-05-09T23:35:23.610Z,0.20
2023-05-09T23:37:51.196Z,0.20
2023-05-09T23:40:18.784Z,0.30
2023-05-09T23:42:46.381Z,0.22
2023-05-09T23:45:13.812Z,0.20
2023-05-09T23:47:41.295Z,0.28
2023-05-09T23:50:11.914Z,0.20
2023-05-09T23:52:39.303Z,0.30
2023-05-09T23:55:07.329Z,0.25
2023-05-09T23:57:34.751Z,0.30
